createdAt,value
2018-08-10T00:00:24.789Z,25.20
2018-08-10T00:02:53.422Z,25.20
2018-08-10T00:05:22.144Z,25.30
2018-08-10T00:07:50.711Z,25.30
2018-08-10T00:10:19.395Z,25.30
2018-08-10T00:12:48.006Z,25.20
2018-08-10T00:15:16.612Z,25.30
2018-08-10T00:17:45.201Z,25.30
2018-08-10T00:20:15.246Z,25.30
2018-08-10T00:22:44.514Z,25.20
2018-08-10T00:25:14.792Z,25.10
2018-08-10T00:27:43.646Z,25.00
2018-08-10T00:30:15.024Z,24.90
2018-08-10T00:32:45.822Z,24.90
2018-08-10T00:35:14.472Z,24.90
2018-08-10T00:37:43.976Z,24.80
2018-08-10T00:40:16.978Z,24.70
2018-08-10T00:42:46.086Z,24.60
2018-08-10T00:45:15.538Z,24.50
2018-08-10T00:47:44.332Z,24.50
2018-08-10T00:50:14.117Z,24.50
2018-08-10T00:52:43.545Z,24.50
2018-08-10T00:55:13.620Z,24.40
2018-08-10T00:57:42.660Z,24.30
2018-08-10T01:00:13.241Z,24.20
2018-08-10T01:02:42.911Z,24.20
2018-08-10T01:05:11.882Z,24.10
2018-08-10T01:07:40.788Z,24.10
2018-08-10T01:10:12.378Z,23.90
2018-08-10T01:12:42.091Z,24.00
2018-08-10T01:15:12.686Z,23.80
2018-08-10T01:17:42.021Z,23.80
2018-08-10T01:20:20.939Z,23.80
2018-08-10T01:22:55.130Z,23.80
2018-08-10T01:25:26.614Z,23.90
2018-08-10T01:28:02.894Z,23.80
2018-08-10T01:30:34.011Z,23.80
2018-08-10T01:33:03.265Z,23.80
2018-08-10T01:35:32.650Z,23.80
2018-08-10T01:38:02.240Z,23.70
2018-08-10T01:40:31.473Z,23.70
2018-08-10T01:43:00.159Z,23.70
2018-08-10T01:45:29.105Z,23.70
2018-08-10T01:47:57.839Z,23.60
2018-08-10T01:50:27.092Z,23.40
2018-08-10T01:52:55.785Z,23.40
2018-08-10T01:55:24.680Z,23.30
2018-08-10T01:57:53.404Z,23.20
2018-08-10T02:00:22.298Z,23.20
2018-08-10T02:02:51.125Z,23.20
2018-08-10T02:05:20.149Z,23.20
2018-08-10T02:07:48.937Z,23.10
2018-08-10T02:10:19.465Z,23.10
2018-08-10T02:12:53.321Z,23.10
2018-08-10T02:15:22.025Z,23.00
2018-08-10T02:17:50.641Z,23.00
2018-08-10T02:20:22.203Z,23.10
2018-08-10T02:22:51.194Z,23.10
2018-08-10T02:25:21.355Z,23.10
2018-08-10T02:27:50.705Z,23.10
2018-08-10T02:30:20.910Z,23.20
2018-08-10T02:32:55.257Z,23.20
2018-08-10T02:35:24.639Z,23.20
2018-08-10T02:37:53.337Z,23.10
2018-08-10T02:40:23.061Z,23.20
2018-08-10T02:42:52.427Z,23.10
2018-08-10T02:45:21.353Z,23.10
2018-08-10T02:47:50.727Z,23.10
2018-08-10T02:50:19.736Z,22.90
2018-08-10T02:52:48.925Z,22.90
2018-08-10T02:55:18.490Z,22.80
2018-08-10T02:57:47.030Z,22.70
2018-08-10T03:00:17.092Z,22.70
2018-08-10T03:02:46.407Z,22.70
2018-08-10T03:05:15.007Z,22.60
2018-08-10T03:07:43.933Z,22.60
2018-08-10T03:10:13.858Z,22.50
2018-08-10T03:12:42.523Z,22.50
2018-08-10T03:15:12.756Z,22.60
2018-08-10T03:17:41.443Z,22.60
2018-08-10T03:20:10.486Z,22.60
2018-08-10T03:22:39.595Z,22.60
2018-08-10T03:25:09.487Z,22.60
2018-08-10T03:27:39.121Z,22.60
2018-08-10T03:30:09.234Z,22.60
2018-08-10T03:32:38.026Z,22.60
2018-08-10T03:35:06.642Z,22.60
2018-08-10T03:37:35.530Z,22.60
2018-08-10T03:40:05.141Z,22.50
2018-08-10T03:42:33.688Z,22.60
2018-08-10T03:45:02.259Z,22.50
2018-08-10T03:47:31.373Z,22.40
2018-08-10T03:50:00.095Z,22.40
2018-08-10T03:52:28.745Z,22.30
2018-08-10T03:54:57.463Z,22.20
2018-08-10T03:57:26.016Z,22.30
2018-08-10T03:59:55.454Z,22.30
2018-08-10T04:02:24.411Z,22.30
2018-08-10T04:04:53.084Z,22.20
2018-08-10T04:07:21.648Z,22.20
2018-08-10T04:09:50.213Z,22.20
2018-08-10T04:12:18.771Z,22.30
2018-08-10T04:14:47.590Z,22.30
2018-08-10T04:17:21.396Z,22.20
2018-08-10T04:19:49.965Z,22.20
2018-08-10T04:22:18.595Z,22.00
2018-08-10T04:24:47.199Z,21.90
2018-08-10T04:27:16.040Z,22.00
2018-08-10T04:29:44.624Z,21.90
2018-08-10T04:32:13.716Z,21.90
2018-08-10T04:34:43.127Z,21.80
2018-08-10T04:37:12.127Z,21.80
2018-08-10T04:39:41.168Z,21.70
2018-08-10T04:42:10.343Z,21.70
2018-08-10T04:44:39.148Z,21.70
2018-08-10T04:47:08.019Z,21.70
2018-08-10T04:49:37.350Z,21.70
2018-08-10T04:52:06.240Z,21.70
2018-08-10T04:54:34.911Z,21.70
2018-08-10T04:57:03.912Z,21.70
2018-08-10T04:59:32.798Z,21.60
2018-08-10T05:02:01.603Z,21.60
2018-08-10T05:04:31.465Z,21.60
2018-08-10T05:07:01.031Z,21.60
2018-08-10T05:09:30.018Z,21.60
2018-08-10T05:11:59.281Z,21.70
2018-08-10T05:14:27.990Z,21.80
2018-08-10T05:16:57.591Z,21.80
2018-08-10T05:19:26.258Z,21.90
2018-08-10T05:21:54.932Z,21.80
2018-08-10T05:24:23.720Z,21.80
2018-08-10T05:26:52.935Z,21.80
2018-08-10T05:29:21.559Z,21.80
2018-08-10T05:31:50.139Z,21.90
2018-08-10T05:34:18.735Z,21.80
2018-08-10T05:36:47.622Z,21.90
2018-08-10T05:39:16.259Z,21.90
2018-08-10T05:41:44.825Z,21.90
2018-08-10T05:44:13.434Z,21.90
2018-08-10T05:46:42.237Z,21.90
2018-08-10T05:49:10.824Z,22.00
2018-08-10T05:51:40.348Z,22.00
2018-08-10T05:54:09.254Z,21.90
2018-08-10T05:56:37.883Z,21.90
2018-08-10T05:59:07.714Z,21.80
2018-08-10T06:01:36.607Z,21.80
2018-08-10T06:04:06.092Z,21.80
2018-08-10T06:06:34.923Z,21.80
2018-08-10T06:09:04.133Z,21.80
2018-08-10T06:11:33.049Z,21.80
2018-08-10T06:14:02.915Z,21.80
2018-08-10T06:16:31.919Z,21.80
2018-08-10T06:19:01.491Z,21.70
2018-08-10T06:21:30.337Z,21.70
2018-08-10T06:23:59.350Z,21.60
2018-08-10T06:26:28.051Z,21.70
2018-08-10T06:28:56.877Z,21.70
2018-08-10T06:31:25.991Z,21.70
2018-08-10T06:33:55.011Z,21.70
2018-08-10T06:36:24.283Z,21.70
2018-08-10T06:38:53.537Z,21.80
2018-08-10T06:41:22.428Z,21.80
2018-08-10T06:43:50.995Z,21.90
2018-08-10T06:46:20.136Z,21.90
2018-08-10T06:48:48.719Z,21.90
2018-08-10T06:51:17.428Z,21.90
2018-08-10T06:53:46.683Z,22.00
2018-08-10T06:56:16.348Z,22.00
2018-08-10T06:58:44.994Z,22.10
2018-08-10T07:01:13.592Z,22.20
2018-08-10T07:03:42.544Z,22.30
2018-08-10T07:06:11.757Z,22.40
2018-08-10T07:08:41.030Z,22.40
2018-08-10T07:11:10.418Z,22.60
2018-08-10T07:13:39.491Z,22.70
2018-08-10T07:16:08.332Z,22.80
2018-08-10T07:18:37.145Z,22.90
2018-08-10T07:21:05.900Z,23.00
2018-08-10T07:23:34.859Z,23.10
2018-08-10T07:26:04.032Z,23.10
2018-08-10T07:28:32.790Z,23.10
2018-08-10T07:31:01.630Z,23.20
2018-08-10T07:33:30.640Z,23.30
2018-08-10T07:35:59.259Z,23.40
2018-08-10T07:38:28.005Z,23.50
2018-08-10T07:40:56.877Z,23.50
2018-08-10T07:43:31.606Z,23.40
2018-08-10T07:46:00.312Z,23.30
2018-08-10T07:48:29.252Z,23.30
2018-08-10T07:50:58.090Z,23.20
2018-08-10T07:53:27.071Z,23.30
2018-08-10T07:55:57.448Z,23.30
2018-08-10T07:58:25.995Z,23.20
2018-08-10T08:00:55.572Z,23.10
2018-08-10T08:03:30.548Z,23.00
2018-08-10T08:06:00.652Z,23.00
2018-08-10T08:08:31.688Z,23.00
2018-08-10T08:11:00.457Z,23.00
2018-08-10T08:13:29.346Z,23.10
2018-08-10T08:15:58.266Z,23.10
2018-08-10T08:18:26.994Z,23.10
2018-08-10T08:21:04.033Z,23.10
2018-08-10T08:23:33.158Z,23.30
2018-08-10T08:26:02.928Z,24.50
2018-08-10T08:28:32.142Z,23.40
2018-08-10T08:31:01.880Z,23.40
2018-08-10T08:33:31.446Z,23.40
2018-08-10T08:36:01.856Z,23.50
2018-08-10T08:38:42.017Z,23.50
2018-08-10T08:41:12.047Z,23.50
2018-08-10T08:46:04.100Z,23.40
2018-08-10T08:48:42.569Z,23.40
2018-08-10T08:51:14.382Z,23.10
2018-08-10T08:53:43.264Z,23.20
2018-08-10T08:56:20.449Z,23.30
2018-08-10T08:58:50.640Z,23.30
2018-08-10T09:01:20.549Z,23.30
2018-08-10T09:04:56.888Z,23.30
2018-08-10T09:07:28.452Z,23.40
2018-08-10T09:09:57.444Z,23.50
2018-08-10T09:12:26.560Z,23.70
2018-08-10T09:14:58.897Z,23.80
2018-08-10T09:17:27.910Z,23.90
2018-08-10T09:19:56.832Z,23.90
2018-08-10T09:22:26.283Z,24.10
2018-08-10T09:24:56.060Z,24.10
2018-08-10T09:27:25.801Z,24.20
2018-08-10T09:29:55.229Z,24.20
2018-08-10T09:32:24.674Z,24.30
2018-08-10T09:34:54.016Z,24.40
2018-08-10T09:37:23.692Z,24.50
2018-08-10T09:39:52.934Z,24.60
2018-08-10T09:42:21.602Z,24.50
2018-08-10T09:44:50.801Z,24.50
2018-08-10T09:47:19.651Z,24.50
2018-08-10T09:49:49.684Z,24.50
2018-08-10T09:52:18.661Z,24.40
2018-08-10T09:55:40.064Z,24.50
2018-08-10T09:58:14.630Z,24.60
2018-08-10T10:00:49.090Z,24.40
2018-08-10T10:03:20.389Z,24.30
2018-08-10T10:05:51.191Z,24.30
2018-08-10T10:08:20.871Z,24.40
2018-08-10T10:10:50.382Z,24.50
2018-08-10T10:13:19.481Z,24.60
2018-08-10T10:15:48.417Z,24.60
2018-08-10T10:18:18.076Z,24.60
2018-08-10T10:20:47.448Z,24.70
2018-08-10T10:23:16.290Z,24.60
2018-08-10T10:25:45.192Z,24.70
2018-08-10T10:28:13.911Z,24.80
2018-08-10T10:30:42.752Z,24.90
2018-08-10T10:33:11.607Z,25.00
2018-08-10T10:35:40.983Z,25.00
2018-08-10T10:38:11.508Z,25.00
2018-08-10T10:40:40.038Z,24.90
2018-08-10T10:43:09.422Z,25.00
2018-08-10T10:45:38.318Z,25.10
2018-08-10T10:48:07.183Z,25.10
2018-08-10T10:50:36.887Z,25.10
2018-08-10T10:53:05.694Z,25.00
2018-08-10T10:55:35.464Z,24.90
2018-08-10T10:58:05.022Z,25.00
2018-08-10T11:00:33.908Z,25.00
2018-08-10T11:03:03.426Z,24.90
2018-08-10T11:05:33.256Z,24.80
2018-08-10T11:08:02.524Z,24.80
2018-08-10T11:10:31.808Z,24.80
2018-08-10T11:13:00.796Z,24.80
2018-08-10T11:15:30.080Z,24.90
2018-08-10T11:17:59.325Z,24.90
2018-08-10T11:20:28.145Z,25.00
2018-08-10T11:22:57.384Z,24.90
2018-08-10T11:25:27.300Z,25.00
2018-08-10T11:27:56.612Z,25.10
2018-08-10T11:30:25.484Z,25.10
2018-08-10T11:32:54.664Z,25.10
2018-08-10T11:35:23.282Z,25.20
2018-08-10T11:37:52.265Z,25.20
2018-08-10T11:40:20.957Z,25.30
2018-08-10T11:42:49.530Z,25.30
2018-08-10T11:45:18.553Z,25.40
2018-08-10T11:47:47.278Z,25.50
2018-08-10T11:50:17.252Z,25.40
2018-08-10T11:52:46.332Z,25.30
2018-08-10T11:55:15.364Z,25.30
2018-08-10T11:57:44.456Z,25.50
2018-08-10T12:00:14.628Z,25.60
2018-08-10T12:02:44.639Z,25.70
2018-08-10T12:05:14.614Z,25.80
2018-08-10T12:07:43.219Z,25.80
2018-08-10T12:10:11.749Z,25.90
2018-08-10T12:12:41.182Z,26.00
2018-08-10T12:15:12.141Z,25.90
2018-08-10T12:17:41.519Z,26.00
2018-08-10T12:20:10.583Z,26.00
2018-08-10T12:22:41.529Z,26.10
2018-08-10T12:25:10.503Z,26.10
2018-08-10T12:27:39.843Z,26.10
2018-08-10T12:30:10.605Z,26.10
2018-08-10T12:32:39.794Z,26.20
2018-08-10T12:35:09.114Z,26.20
2018-08-10T12:37:37.928Z,26.20
2018-08-10T12:40:06.864Z,26.20
2018-08-10T12:42:35.459Z,26.20
2018-08-10T12:45:04.290Z,26.20
2018-08-10T12:47:32.994Z,26.30
2018-08-10T12:50:01.568Z,26.40
2018-08-10T12:52:30.206Z,26.30
2018-08-10T12:54:58.758Z,26.20
2018-08-10T12:57:28.059Z,26.20
2018-08-10T12:59:56.720Z,26.30
2018-08-10T13:02:26.142Z,26.40
2018-08-10T13:04:54.804Z,26.20
2018-08-10T13:07:23.985Z,26.30
2018-08-10T13:09:52.744Z,26.30
2018-08-10T13:12:22.481Z,26.40
2018-08-10T13:14:51.306Z,26.30
2018-08-10T13:17:20.319Z,26.20
2018-08-10T13:19:48.907Z,26.00
2018-08-10T13:22:17.686Z,26.10
2018-08-10T13:24:46.665Z,26.10
2018-08-10T13:27:15.679Z,26.20
2018-08-10T13:29:44.970Z,26.30
2018-08-10T13:32:13.965Z,26.30
2018-08-10T13:34:44.379Z,26.40
2018-08-10T13:37:13.298Z,26.40
2018-08-10T13:39:42.287Z,26.40
2018-08-10T13:42:12.086Z,26.50
2018-08-10T13:44:40.615Z,26.60
2018-08-10T13:47:09.581Z,26.70
2018-08-10T13:49:38.268Z,26.70
2018-08-10T13:52:07.545Z,26.80
2018-08-10T13:54:36.251Z,26.80
2018-08-10T13:57:04.884Z,26.90
2018-08-10T13:59:34.757Z,26.90
2018-08-10T14:02:03.676Z,26.80
2018-08-10T14:04:32.495Z,26.80
2018-08-10T14:07:01.400Z,26.70
2018-08-10T14:09:30.062Z,26.60
2018-08-10T14:11:59.291Z,26.50
2018-08-10T14:14:27.854Z,26.40
2018-08-10T14:16:56.923Z,26.30
2018-08-10T14:19:25.713Z,26.30
2018-08-10T14:21:54.404Z,26.20
2018-08-10T14:24:23.684Z,26.20
2018-08-10T14:26:52.346Z,26.20
2018-08-10T14:29:22.671Z,26.20
2018-08-10T14:31:51.327Z,26.30
2018-08-10T14:34:20.221Z,26.30
2018-08-10T14:36:50.431Z,26.40
2018-08-10T14:39:19.040Z,26.40
2018-08-10T14:41:48.321Z,26.50
2018-08-10T14:44:16.979Z,26.60
2018-08-10T14:46:46.143Z,26.70
2018-08-10T14:49:15.636Z,26.70
2018-08-10T14:52:30.343Z,26.70
2018-08-10T14:54:59.221Z,26.70
2018-08-10T14:57:27.920Z,26.60
2018-08-10T14:59:56.526Z,26.70
2018-08-10T15:02:25.162Z,26.70
2018-08-10T15:04:54.834Z,26.70
2018-08-10T15:07:23.611Z,26.70
2018-08-10T15:09:52.402Z,26.70
2018-08-10T15:12:21.237Z,26.70
2018-08-10T15:14:49.900Z,26.60
2018-08-10T15:17:18.638Z,26.50
2018-08-10T15:19:47.291Z,26.40
2018-08-10T15:22:16.030Z,26.50
2018-08-10T15:24:44.732Z,26.50
2018-08-10T15:27:13.424Z,26.60
2018-08-10T15:29:42.124Z,26.60
2018-08-10T15:32:10.863Z,26.60
2018-08-10T15:34:39.625Z,26.70
2018-08-10T15:37:08.272Z,26.60
2018-08-10T15:39:36.868Z,26.60
2018-08-10T15:42:05.576Z,26.70
2018-08-10T15:44:34.181Z,26.70
2018-08-10T15:47:02.831Z,26.70
2018-08-10T15:49:31.408Z,26.80
2018-08-10T15:52:01.007Z,26.80
2018-08-10T15:54:29.648Z,26.70
2018-08-10T15:56:58.473Z,26.70
2018-08-10T15:59:27.494Z,26.70
2018-08-10T16:01:56.614Z,26.80
2018-08-10T16:04:25.261Z,26.80
2018-08-10T16:06:53.940Z,26.80
2018-08-10T16:09:22.660Z,26.80
2018-08-10T16:11:51.579Z,26.70
2018-08-10T16:14:20.279Z,26.70
2018-08-10T16:16:48.896Z,26.70
2018-08-10T16:19:17.788Z,26.70
2018-08-10T16:21:46.535Z,26.70
2018-08-10T16:24:15.633Z,26.70
2018-08-10T16:26:44.196Z,26.70
2018-08-10T16:29:13.067Z,26.70
2018-08-10T16:31:57.090Z,26.70
2018-08-10T16:34:26.004Z,26.70
2018-08-10T16:36:54.820Z,26.60
2018-08-10T16:39:23.511Z,26.50
2018-08-10T16:41:52.224Z,26.50
2018-08-10T16:44:21.020Z,26.50
2018-08-10T16:46:49.740Z,26.60
2018-08-10T16:49:18.492Z,26.60
2018-08-10T16:51:47.119Z,26.70
2018-08-10T16:54:16.116Z,26.70
2018-08-10T16:56:44.862Z,26.70
2018-08-10T16:59:13.844Z,26.60
2018-08-10T17:01:42.413Z,26.70
2018-08-10T17:04:11.016Z,26.60
2018-08-10T17:06:39.622Z,26.60
2018-08-10T17:09:09.655Z,26.50
2018-08-10T17:11:38.238Z,26.60
2018-08-10T17:14:07.586Z,26.60
2018-08-10T17:16:36.228Z,26.60
2018-08-10T17:19:05.104Z,26.60
2018-08-10T17:21:33.774Z,26.60
2018-08-10T17:24:02.330Z,26.60
2018-08-10T17:26:31.023Z,26.50
2018-08-10T17:28:59.656Z,26.50
2018-08-10T17:31:28.240Z,26.60
2018-08-10T17:33:56.847Z,26.60
2018-08-10T17:36:25.664Z,26.60
2018-08-10T17:38:54.982Z,26.50
2018-08-10T17:41:23.609Z,26.50
2018-08-10T17:43:52.563Z,26.50
2018-08-10T17:46:21.561Z,26.50
2018-08-10T17:48:50.243Z,26.40
2018-08-10T17:51:18.977Z,26.40
2018-08-10T17:53:48.026Z,26.40
2018-08-10T17:56:16.690Z,26.40
2018-08-10T17:58:45.249Z,26.40
2018-08-10T18:01:14.301Z,26.40
2018-08-10T18:03:43.006Z,26.40
2018-08-10T18:06:11.659Z,26.40
2018-08-10T18:08:40.272Z,26.40
2018-08-10T18:11:08.956Z,26.40
2018-08-10T18:13:37.673Z,26.30
2018-08-10T18:16:06.402Z,26.30
2018-08-10T18:18:34.966Z,26.40
2018-08-10T18:21:03.680Z,26.30
2018-08-10T18:23:32.504Z,26.20
2018-08-10T18:26:01.150Z,26.20
2018-08-10T18:28:29.692Z,26.20
2018-08-10T18:30:58.328Z,26.10
2018-08-10T18:33:26.973Z,26.10
2018-08-10T18:35:55.595Z,26.00
2018-08-10T18:38:24.952Z,26.00
2018-08-10T18:40:54.605Z,25.90
2018-08-10T18:43:23.749Z,25.90
2018-08-10T18:45:52.384Z,25.80
2018-08-10T18:48:20.960Z,25.70
2018-08-10T18:50:49.707Z,25.70
2018-08-10T18:53:18.308Z,25.60
2018-08-10T18:55:46.999Z,25.50
2018-08-10T18:58:15.642Z,25.40
2018-08-10T19:00:44.322Z,25.40
2018-08-10T19:03:12.906Z,25.40
2018-08-10T19:05:42.062Z,25.40
2018-08-10T19:08:10.921Z,25.40
2018-08-10T19:10:39.886Z,25.40
2018-08-10T19:13:08.651Z,25.40
2018-08-10T19:15:37.251Z,25.30
2018-08-10T19:18:07.668Z,25.30
2018-08-10T19:20:36.318Z,25.20
2018-08-10T19:23:05.039Z,25.10
2018-08-10T19:25:33.727Z,25.10
2018-08-10T19:28:02.533Z,25.10
2018-08-10T19:30:31.614Z,25.00
2018-08-10T19:33:00.169Z,24.90
2018-08-10T19:35:29.010Z,24.90
2018-08-10T19:37:57.664Z,24.90
2018-08-10T19:40:26.300Z,24.90
2018-08-10T19:42:55.319Z,24.90
2018-08-10T19:45:24.439Z,24.80
2018-08-10T19:47:53.197Z,24.80
2018-08-10T19:50:23.670Z,24.80
2018-08-10T19:52:52.944Z,24.80
2018-08-10T19:55:22.001Z,24.80
2018-08-10T19:57:50.743Z,24.80
2018-08-10T20:00:19.694Z,24.80
2018-08-10T20:02:49.598Z,24.80
2018-08-10T20:05:18.255Z,24.80
2018-08-10T20:07:47.465Z,24.90
2018-08-10T20:10:16.422Z,25.00
2018-08-10T20:12:45.097Z,25.00
2018-08-10T20:15:15.336Z,25.10
2018-08-10T20:17:44.191Z,25.00
2018-08-10T20:20:14.200Z,24.90
2018-08-10T20:22:43.335Z,24.80
2018-08-10T20:25:12.904Z,24.70
2018-08-10T20:27:41.531Z,24.70
2018-08-10T20:30:14.277Z,24.70
2018-08-10T20:32:43.609Z,24.60
2018-08-10T20:35:14.973Z,24.60
2018-08-10T20:37:43.859Z,24.60
2018-08-10T20:40:15.218Z,24.60
2018-08-10T20:42:43.989Z,24.60
2018-08-10T20:45:12.886Z,24.50
2018-08-10T20:47:41.640Z,24.50
2018-08-10T20:50:15.780Z,24.50
2018-08-10T20:52:45.119Z,24.40
2018-08-10T20:55:13.868Z,24.30
2018-08-10T20:57:42.656Z,24.30
2018-08-10T21:00:11.774Z,24.20
2018-08-10T21:02:41.447Z,24.20
2018-08-10T21:05:10.300Z,24.10
2018-08-10T21:07:39.142Z,24.00
2018-08-10T21:10:11.166Z,23.90
2018-08-10T21:12:41.544Z,24.00
2018-08-10T21:15:11.463Z,24.00
2018-08-10T21:17:41.375Z,23.90
2018-08-10T21:20:11.699Z,23.90
2018-08-10T21:22:41.343Z,23.90
2018-08-10T21:25:10.639Z,23.90
2018-08-10T21:27:40.713Z,23.80
2018-08-10T21:30:12.292Z,23.80
2018-08-10T21:32:41.237Z,23.70
2018-08-10T21:35:10.108Z,23.60
2018-08-10T21:37:38.866Z,23.60
2018-08-10T21:40:08.516Z,23.50
2018-08-10T21:42:37.103Z,23.40
2018-08-10T21:45:06.265Z,23.40
2018-08-10T21:47:34.943Z,23.30
2018-08-10T21:50:03.764Z,23.30
2018-08-10T21:52:32.299Z,23.40
2018-08-10T21:55:01.155Z,23.30
2018-08-10T21:57:30.050Z,23.10
2018-08-10T21:59:58.913Z,23.10
2018-08-10T22:02:27.610Z,23.00
2018-08-10T22:04:56.447Z,23.10
2018-08-10T22:07:25.191Z,23.00
2018-08-10T22:09:53.791Z,23.10
2018-08-10T22:12:22.382Z,23.10
2018-08-10T22:14:56.164Z,23.10
2018-08-10T22:17:30.084Z,23.10
2018-08-10T22:20:00.205Z,23.00
2018-08-10T22:22:30.032Z,23.00
2018-08-10T22:24:58.844Z,23.00
2018-08-10T22:27:27.634Z,23.00
2018-08-10T22:29:56.280Z,22.80
2018-08-10T22:32:24.937Z,22.80
2018-08-10T22:34:53.644Z,22.80
2018-08-10T22:37:22.189Z,22.70
2018-08-10T22:39:50.810Z,22.80
2018-08-10T22:42:19.415Z,22.80
2018-08-10T22:44:48.032Z,22.90
2018-08-10T22:47:16.696Z,23.00
2018-08-10T22:49:45.371Z,22.80
2018-08-10T22:52:14.017Z,22.80
2018-08-10T22:54:42.667Z,22.80
2018-08-10T22:57:11.269Z,22.90
2018-08-10T22:59:39.906Z,22.90
2018-08-10T23:02:08.651Z,22.80
2018-08-10T23:04:37.198Z,22.80
2018-08-10T23:07:05.911Z,22.80
2018-08-10T23:09:34.471Z,22.80
2018-08-10T23:12:03.082Z,22.80
2018-08-10T23:14:31.718Z,22.80
2018-08-10T23:17:00.348Z,22.70
2018-08-10T23:19:28.899Z,22.50
2018-08-10T23:21:57.471Z,22.60
2018-08-10T23:24:26.103Z,22.50
2018-08-10T23:26:54.762Z,22.40
2018-08-10T23:29:23.477Z,22.30
2018-08-10T23:31:52.169Z,22.20
2018-08-10T23:34:20.840Z,22.30
2018-08-10T23:36:49.399Z,22.30
2018-08-10T23:39:18.106Z,22.20
2018-08-10T23:41:46.656Z,22.10
2018-08-10T23:44:15.229Z,22.10
2018-08-10T23:46:43.861Z,22.20
2018-08-10T23:49:12.458Z,22.20
2018-08-10T23:51:41.043Z,22.20
2018-08-10T23:54:09.666Z,22.30
2018-08-10T23:56:38.278Z,22.30
2018-08-10T23:59:06.984Z,22.20
